Time;durP1;ratioP1;P1;durP2;ratioP2;P2;SDS_P1;SDS_P2;PMS_P1;PMS_P2;Temp;Humidity;BMP_temperature;BMP_pressure;BME280_temperature;BME280_humidity;BME280_pressure;Samples;Min_cycle;Max_cycle;Signal;HPM_P1;HPM_P2
2022/04/22 01:18:03;;;;;;;3.50;2.67;;;;;;;5.79;100.00;93019.22;4992930;28;20070;-91
2022/04/22 01:20:29;;;;;;;5.57;3.50;;;;;;;5.77;100.00;93029.09;4965701;28;20034;-91
2022/04/22 01:23:01;;;;;;;3.50;2.88;;;;;;;5.58;100.00;93020.38;4965043;28;20044;-90
2022/04/22 01:25:39;;;;;;;;;;;;;;;;;;;;;
2022/04/22 01:28:06;;;;;;;4.38;3.20;;;;;;;5.49;100.00;93028.75;4982681;28;20026;-92
2022/04/22 01:30:37;;;;;;;3.53;2.70;;;;;;;5.47;100.00;93023.03;4981043;28;20085;-92
2022/04/22 01:33:03;;;;;;;3.53;2.95;;;;;;;5.45;100.00;93019.16;4981175;28;20450;-91
2022/04/22 01:35:28;;;;;;;3.80;2.90;;;;;;;5.31;100.00;93019.72;4964984;28;20037;-92
2022/04/22 01:37:54;;;;;;;2.70;2.10;;;;;;;5.26;100.00;93018.97;4981157;28;20431;-92
2022/04/22 01:40:19;;;;;;;3.58;2.90;;;;;;;5.30;100.00;93015.59;4965560;28;20026;-92
2022/04/22 01:42:47;;;;;;;4.90;2.65;;;;;;;5.37;100.00;93012.69;4965113;28;20026;-91
2022/04/22 01:45:15;;;;;;;3.20;2.60;;;;;;;5.45;100.00;93014.75;4965143;28;20042;-92
2022/04/22 01:47:41;;;;;;;4.15;2.75;;;;;;;5.35;100.00;93004.41;4965440;28;20029;-92
2022/04/22 01:50:12;;;;;;;3.92;2.65;;;;;;;5.34;100.00;92998.41;4965058;28;20030;-92
2022/04/22 01:52:40;;;;;;;6.35;2.55;;;;;;;5.28;100.00;93004.69;4981219;28;20446;-91
2022/04/22 01:55:31;;;;;;;2.22;1.98;;;;;;;5.30;100.00;93007.00;4965524;28;20034;-92
2022/04/22 01:57:57;;;;;;;2.28;1.80;;;;;;;5.31;100.00;92991.16;4981021;28;20045;-92
2022/04/22 02:00:25;;;;;;;3.85;2.15;;;;;;;5.37;100.00;92989.31;4964636;28;20030;-92
2022/04/22 02:02:50;;;;;;;3.63;2.50;;;;;;;5.28;100.00;92983.91;4980960;28;20026;-92
2022/04/22 02:05:18;;;;;;;5.53;2.55;;;;;;;5.25;100.00;92994.84;4981010;28;20030;-93
2022/04/22 02:07:54;;;;;;;;;;;;;;;;;;;;;
2022/04/22 02:10:24;;;;;;;3.00;2.20;;;;;;;5.28;100.00;92983.91;4989809;28;20014;-92
2022/04/22 02:12:52;;;;;;;5.32;3.63;;;;;;;5.31;100.00;92982.63;5000540;28;20447;-92
2022/04/22 02:15:21;;;;;;;4.32;3.40;;;;;;;5.33;100.00;92977.91;5000035;28;20509;-91
2022/04/22 02:17:46;;;;;;;7.32;5.25;;;;;;;5.19;100.00;92983.69;4984015;28;20046;-91
2022/04/22 02:20:12;;;;;;;5.97;4.43;;;;;;;5.22;100.00;92980.56;4999955;28;20427;-91
2022/04/22 02:22:40;;;;;;;5.90;4.22;;;;;;;5.32;100.00;92978.97;4983815;28;20025;-92
2022/04/22 02:25:08;;;;;;;5.63;3.63;;;;;;;5.20;100.00;92977.47;5000660;28;20053;-91
2022/04/22 02:30:28;;;;;;;;;;;;;;;;;;;;;
2022/04/22 02:32:55;;;;;;;5.05;3.40;;;;;;;5.13;100.00;92966.56;5016289;28;20029;-92
2022/04/22 02:35:27;;;;;;;4.72;3.05;;;;;;;5.17;100.00;92952.03;4984219;28;20025;-92
2022/04/22 02:37:55;;;;;;;4.50;3.30;;;;;;;5.14;100.00;92959.56;5000040;28;20128;-92
2022/04/22 02:45:59;;;;;;;3.38;2.67;;;;;;;5.03;100.00;92949.22;5002137;28;20465;-92
2022/04/22 02:48:25;;;;;;;4.07;3.05;;;;;;;5.07;100.00;92947.66;5016060;28;20120;-91
2022/04/22 02:50:52;;;;;;;3.47;2.63;;;;;;;5.06;100.00;92955.72;4983849;28;20395;-93
2022/04/22 02:53:18;;;;;;;3.03;2.22;;;;;;;5.20;100.00;92946.31;4999861;28;20369;-91
2022/04/22 02:55:59;;;;;;;;;;;;;;;;;;;;;
2022/04/22 02:58:31;;;;;;;3.45;2.42;;;;;;;5.11;100.00;92947.91;5001028;28;20017;-91
2022/04/22 03:00:57;;;;;;;3.72;2.58;;;;;;;5.16;100.00;92944.50;5015864;28;20030;-92
2022/04/22 03:03:25;;;;;;;5.35;2.65;;;;;;;5.19;100.00;92943.97;4999460;28;20351;-91
2022/04/22 03:05:54;;;;;;;3.75;2.72;;;;;;;5.17;100.00;92939.06;5015760;28;20026;-93
2022/04/22 03:08:30;;;;;;;;;;;;;;;;;;;;;
2022/04/22 03:11:01;;;;;;;8.32;2.33;;;;;;;5.10;100.00;92930.78;5015801;28;20014;-92
2022/04/22 03:13:29;;;;;;;4.75;2.70;;;;;;;5.12;100.00;92926.09;5011964;28;20037;-93
2022/04/22 03:16:04;;;;;;;;;;;;;;;;;;;;;
2022/04/22 03:18:32;;;;;;;4.30;2.00;;;;;;;5.05;100.00;92923.03;4969052;28;20029;-91
2022/04/22 03:21:03;;;;;;;2.58;2.00;;;;;;;4.99;100.00;92924.06;4983994;28;20109;-93
2022/04/22 03:23:39;;;;;;;;;;;;;;;;;;;;;
2022/04/22 03:26:04;;;;;;;2.00;1.67;;;;;;;4.98;100.00;92915.53;4999817;28;20016;-92
2022/04/22 03:28:30;;;;;;;5.72;1.90;;;;;;;4.95;100.00;92909.03;4967951;28;20495;-91
2022/04/22 03:30:55;;;;;;;2.83;2.13;;;;;;;4.93;100.00;92910.34;4967491;28;20113;-91
2022/04/22 03:33:21;;;;;;;2.70;1.98;;;;;;;5.00;100.00;92913.44;4967223;28;20034;-91
2022/04/22 03:35:50;;;;;;;4.03;2.10;;;;;;;4.96;100.00;92917.63;4967241;28;20091;-92
2022/04/22 03:38:24;;;;;;;4.50;2.90;;;;;;;5.10;100.00;92917.78;4983380;28;20026;-92
2022/04/22 03:41:03;;;;;;;;;;;;;;;;;;;;;
2022/04/22 03:43:29;;;;;;;9.73;2.53;;;;;;;5.07;100.00;92926.13;4999598;28;20032;-91
2022/04/22 03:46:04;;;;;;;;;;;;;;;;;;;;;
2022/04/22 03:48:30;;;;;;;2.55;2.08;;;;;;;5.12;100.00;92927.91;4984684;28;20033;-91
2022/04/22 03:50:56;;;;;;;3.08;2.10;;;;;;;5.06;100.00;92920.13;4967175;28;20414;-91
2022/04/22 03:53:23;;;;;;;2.85;2.10;;;;;;;5.26;100.00;92921.09;4967484;28;20033;-92
2022/04/22 03:55:51;;;;;;;5.60;2.40;;;;;;;5.20;100.00;92914.34;4983205;28;20339;-91
2022/04/22 03:58:17;;;;;;;1.88;1.67;;;;;;;5.18;100.00;92922.44;4983866;28;20053;-91
2022/04/22 04:00:51;;;;;;;1.92;1.60;;;;;;;5.22;100.00;92915.66;4983364;28;20030;-91
2022/04/22 04:03:19;;;;;;;3.80;1.30;;;;;;;5.16;100.00;92910.75;4967949;28;20030;-92
2022/04/22 04:05:49;;;;;;;2.17;1.48;;;;;;;5.17;100.00;92913.09;4966286;28;20034;-92
2022/04/22 04:08:16;;;;;;;8.98;1.88;;;;;;;5.28;100.00;92903.41;4967511;28;20375;-91
2022/04/22 04:16:16;;;;;;;2.03;1.35;;;;;;;5.13;100.00;92898.31;4985165;28;20037;-91
2022/04/22 04:18:44;;;;;;;1.35;1.15;;;;;;;5.11;100.00;92895.97;4983351;28;20431;-91
2022/04/22 04:23:58;;;;;;;3.33;0.90;;;;;;;5.09;100.00;92892.88;4984407;28;20527;-91
2022/04/22 04:26:26;;;;;;;1.20;0.90;;;;;;;5.01;100.00;92903.81;4982848;28;20069;-92
2022/04/22 04:29:05;;;;;;;;;;;;;;;;;;;;;
2022/04/22 04:31:33;;;;;;;2.05;0.95;;;;;;;5.26;100.00;92922.91;4983743;28;20057;-90
2022/04/22 04:34:01;;;;;;;1.40;0.90;;;;;;;5.19;100.00;92915.41;4982961;28;20077;-89
2022/04/22 04:36:36;;;;;;;;;;;;;;;;;;;;;
2022/04/22 04:39:05;;;;;;;0.60;0.60;;;;;;;5.17;100.00;92909.72;4983491;28;20458;-90
2022/04/22 04:41:31;;;;;;;1.40;0.85;;;;;;;5.23;100.00;92904.22;4982410;28;20029;-90
2022/04/22 04:43:58;;;;;;;0.60;0.60;;;;;;;5.06;100.00;92914.19;4966007;28;20461;-90
2022/04/22 04:46:26;;;;;;;3.10;1.00;;;;;;;5.18;100.00;92901.66;4966400;28;20440;-89
2022/04/22 04:49:01;;;;;;;;;;;;;;;;;;;;;
2022/04/22 04:51:37;;;;;;;;;;;;;;;;;;;;;
2022/04/22 04:54:03;;;;;;;2.55;1.00;;;;;;;5.38;100.00;92903.34;4983270;28;20032;-90
2022/04/22 04:56:28;;;;;;;5.57;1.10;;;;;;;5.27;100.00;92899.25;4981593;28;20121;-91
2022/04/22 04:58:56;;;;;;;1.08;0.90;;;;;;;5.29;100.00;92896.38;4965685;28;20033;-89
2022/04/22 05:01:21;;;;;;;0.95;0.88;;;;;;;5.38;100.00;92886.97;4980610;28;20034;-89
2022/04/22 05:03:47;;;;;;;1.27;0.90;;;;;;;5.40;100.00;92892.69;4965599;28;20305;-88
2022/04/22 05:06:13;;;;;;;2.35;1.08;;;;;;;5.30;100.00;92890.94;4962375;28;20073;-89
2022/04/22 05:08:38;;;;;;;0.70;0.70;;;;;;;5.34;100.00;92894.53;4993226;28;20034;-88
2022/04/22 05:11:06;;;;;;;1.40;0.70;;;;;;;5.40;100.00;92897.88;4981833;28;20034;-88
2022/04/22 05:13:34;;;;;;;1.38;0.75;;;;;;;5.27;100.00;92895.88;4996261;28;20117;-88
2022/04/22 05:16:07;;;;;;;7.53;0.85;;;;;;;5.30;100.00;92895.34;4998723;28;20031;-88
2022/04/22 05:18:39;;;;;;;1.50;1.02;;;;;;;5.32;100.00;92886.22;4998849;28;20030;-88
2022/04/22 05:21:05;;;;;;;1.02;0.80;;;;;;;5.40;100.00;92892.69;4999115;28;20034;-87
2022/04/22 05:23:30;;;;;;;4.00;1.10;;;;;;;5.38;100.00;92887.78;4981331;28;20040;-88
2022/04/22 05:25:56;;;;;;;0.80;0.80;;;;;;;5.46;100.00;92891.59;4998886;28;20038;-88
2022/04/22 05:28:21;;;;;;;1.33;1.10;;;;;;;5.43;100.00;92892.13;4981190;28;20091;-87
2022/04/22 05:33:51;;;;;;;1.63;1.13;;;;;;;5.45;100.00;92890.06;4919529;29;20346;-87
2022/04/22 05:36:18;;;;;;;1.30;1.20;;;;;;;5.45;100.00;92897.84;4982264;28;20360;-88
2022/04/22 05:38:46;;;;;;;4.00;1.40;;;;;;;5.36;100.00;92889.06;4981322;28;20037;-88
2022/04/22 05:41:12;;;;;;;1.95;1.40;;;;;;;5.19;100.00;92898.00;4981325;28;20030;-88
2022/04/22 05:43:37;;;;;;;2.30;1.75;;;;;;;5.41;100.00;92896.81;4997686;28;20034;-87
2022/04/22 05:46:03;;;;;;;3.65;1.20;;;;;;;5.45;100.00;92892.66;4997134;28;20070;-88
2022/04/22 05:48:28;;;;;;;1.85;1.60;;;;;;;5.62;100.00;92897.44;4997162;28;20030;-87
2022/04/22 05:50:55;;;;;;;4.22;1.90;;;;;;;5.62;100.00;92899.28;4997396;28;20038;-87
2022/04/22 05:53:20;;;;;;;1.58;1.20;;;;;;;5.48;100.00;92892.09;4981562;28;20034;-87
2022/04/22 05:55:46;;;;;;;2.13;1.52;;;;;;;5.59;100.00;92886.81;4996841;28;20056;-87
2022/04/22 05:58:14;;;;;;;1.85;1.08;;;;;;;5.41;100.00;92886.44;4980750;28;20454;-87
2022/04/22 06:00:40;;;;;;;1.48;1.20;;;;;;;5.42;100.00;92882.78;4980618;28;20030;-86
2022/04/22 06:03:07;;;;;;;1.70;1.02;;;;;;;5.40;100.00;92871.91;4997738;28;20387;-88
2022/04/22 06:05:32;;;;;;;1.88;1.38;;;;;;;5.68;100.00;92882.59;4998015;28;20076;-87
2022/04/22 06:10:49;;;;;;;2.28;1.20;;;;;;;5.55;100.00;92881.41;4997010;28;20032;-87
2022/04/22 06:13:15;;;;;;;1.60;1.13;;;;;;;5.58;100.00;92875.66;4980841;28;20041;-88
2022/04/22 06:15:40;;;;;;;1.90;1.38;;;;;;;5.59;100.00;92879.03;4997913;28;20034;-87
2022/04/22 06:18:06;;;;;;;2.30;1.80;;;;;;;5.51;100.00;92883.75;4964235;28;20133;-87
2022/04/22 06:20:32;;;;;;;1.30;1.15;;;;;;;5.65;100.00;92878.72;4964516;28;20023;-87
2022/04/22 06:22:58;;;;;;;1.27;1.00;;;;;;;5.56;100.00;92862.16;4996618;28;20077;-87
2022/04/22 06:25:24;;;;;;;1.23;1.10;;;;;;;5.58;100.00;92865.28;4964388;28;20029;-87
2022/04/22 06:27:49;;;;;;;1.88;1.30;;;;;;;5.65;100.00;92857.16;4980385;28;20022;-87
2022/04/22 06:30:17;;;;;;;2.28;1.10;;;;;;;5.79;100.00;92859.88;4996668;28;20030;-87
2022/04/22 06:32:47;;;;;;;0.80;0.80;;;;;;;5.78;100.00;92868.72;4996473;28;20022;-88
2022/04/22 06:35:15;;;;;;;0.77;0.60;;;;;;;5.73;100.00;92856.56;4980546;28;20026;-88
2022/04/22 06:37:42;;;;;;;1.60;0.57;;;;;;;5.66;100.00;92861.31;4997658;28;20036;-87
2022/04/22 06:45:48;;;;;;;3.42;0.60;;;;;;;5.77;100.00;92859.38;4982391;28;20085;-87
2022/04/22 06:48:20;;;;;;;0.85;0.50;;;;;;;5.88;100.00;92865.25;4996434;28;20101;-88
2022/04/22 06:50:48;;;;;;;0.70;0.70;;;;;;;6.03;100.00;92862.56;4980623;28;20036;-88
2022/04/22 06:53:15;;;;;;;2.85;1.13;;;;;;;5.80;100.00;92859.63;4980102;28;20277;-88
2022/04/22 06:55:41;;;;;;;1.08;0.80;;;;;;;5.96;100.00;92854.28;4980005;28;20029;-87
2022/04/22 06:58:12;;;;;;;0.70;0.68;;;;;;;5.90;100.00;92847.59;4980038;28;20351;-87
2022/04/22 07:00:38;;;;;;;2.40;0.80;;;;;;;6.16;100.00;92855.94;4980197;28;20124;-87
2022/04/22 07:03:04;;;;;;;1.27;0.98;;;;;;;6.16;100.00;92850.72;4980438;28;20435;-87
2022/04/22 07:05:32;;;;;;;1.20;0.70;;;;;;;6.01;100.00;92845.66;4996424;28;20424;-88
2022/04/22 07:07:59;;;;;;;0.80;0.70;;;;;;;6.09;100.00;92852.88;4980160;28;20027;-87
2022/04/22 07:10:25;;;;;;;1.90;0.90;;;;;;;6.19;100.00;92850.16;4980042;28;20371;-87
2022/04/22 07:12:50;;;;;;;0.93;0.80;;;;;;;6.14;100.00;92852.84;4995902;28;20030;-88
2022/04/22 07:15:16;;;;;;;2.33;0.90;;;;;;;6.04;100.00;92852.94;4996294;28;20034;-88
2022/04/22 07:17:42;;;;;;;0.75;0.70;;;;;;;6.05;100.00;92849.28;4995850;28;20042;-87
2022/04/22 07:20:09;;;;;;;1.50;0.68;;;;;;;6.05;100.00;92842.25;4964279;28;20026;-88
2022/04/22 07:22:42;;;;;;;0.75;0.60;;;;;;;5.84;100.00;92836.47;4980337;28;20340;-88
2022/04/22 07:25:09;;;;;;;1.20;0.50;;;;;;;5.91;100.00;92844.69;4964339;28;20120;-88
2022/04/22 07:27:37;;;;;;;0.80;0.70;;;;;;;6.08;100.00;92852.09;4964156;28;20048;-87
2022/04/22 07:30:05;;;;;;;0.50;0.50;;;;;;;6.03;100.00;92859.19;4996265;28;20034;-87
2022/04/22 07:32:30;;;;;;;1.85;0.88;;;;;;;5.98;100.00;92867.00;4995457;28;20022;-87
2022/04/22 07:34:59;;;;;;;0.80;0.70;;;;;;;5.96;100.00;92856.13;4999428;28;20038;-87
2022/04/22 07:37:25;;;;;;;0.73;0.70;;;;;;;5.93;100.00;92858.19;4999410;28;20056;-88
2022/04/22 07:39:53;;;;;;;2.53;1.05;;;;;;;6.18;100.00;92856.41;4999144;28;20030;-87
2022/04/22 07:42:20;;;;;;;1.25;0.82;;;;;;;6.15;100.00;92864.00;4999556;28;20077;-88
2022/04/22 07:47:38;;;;;;;0.95;0.60;;;;;;;6.39;100.00;92855.44;5016495;28;20431;-87
2022/04/22 07:50:05;;;;;;;1.13;0.50;;;;;;;6.28;100.00;92858.13;4983604;28;20025;-87
2022/04/22 07:52:34;;;;;;;1.60;0.60;;;;;;;6.47;100.00;92863.38;4999252;28;20034;-86
2022/04/22 07:55:00;;;;;;;0.60;0.60;;;;;;;6.45;100.00;92864.72;4998957;28;20108;-87
2022/04/22 07:57:29;;;;;;;0.60;0.60;;;;;;;6.41;100.00;92869.72;4999218;28;20117;-87
2022/04/22 07:59:55;;;;;;;1.20;0.50;;;;;;;6.25;100.00;92863.91;5002844;28;20030;-87
2022/04/22 08:02:21;;;;;;;0.95;0.70;;;;;;;6.43;100.00;92864.22;5002755;28;20068;-87
2022/04/22 08:04:48;;;;;;;0.68;0.50;;;;;;;6.43;100.00;92862.41;5002668;28;20037;-87
2022/04/22 08:07:15;;;;;;;0.93;0.73;;;;;;;6.39;100.00;92861.41;4986194;28;20029;-87
2022/04/22 08:09:40;;;;;;;1.33;0.60;;;;;;;6.27;100.00;92861.03;5002102;28;20125;-87
2022/04/22 08:12:09;;;;;;;0.85;0.50;;;;;;;6.25;100.00;92861.28;5002271;28;20490;-87
2022/04/22 08:14:36;;;;;;;1.17;0.60;;;;;;;6.42;100.00;92863.47;5002108;28;20037;-87
2022/04/22 08:17:01;;;;;;;0.73;0.70;;;;;;;6.69;100.00;92867.31;4985846;28;20025;-87
2022/04/22 08:19:27;;;;;;;0.77;0.50;;;;;;;6.53;100.00;92868.53;5002354;28;20026;-87
2022/04/22 08:21:52;;;;;;;2.00;0.90;;;;;;;6.62;100.00;92862.44;4986082;28;20124;-88
2022/04/22 08:24:18;;;;;;;3.97;0.70;;;;;;;6.44;100.00;92868.38;5002347;28;20398;-87
2022/04/22 08:26:45;;;;;;;0.93;0.63;;;;;;;6.36;100.00;92852.34;4985842;28;20024;-88
2022/04/22 08:29:10;;;;;;;1.10;0.70;;;;;;;6.50;100.00;92872.47;4985860;28;20026;-87
2022/04/22 08:31:36;;;;;;;1.80;0.57;;;;;;;6.61;100.00;92863.50;5001910;28;20052;-87
2022/04/22 08:34:01;;;;;;;1.23;0.47;;;;;;;6.60;100.00;92866.38;4985887;28;20033;-87
2022/04/22 08:36:28;;;;;;;1.50;0.80;;;;;;;6.57;100.00;92866.94;4985551;28;20077;-87
2022/04/22 08:38:53;;;;;;;1.10;0.80;;;;;;;6.76;100.00;92874.78;5001505;28;20050;-87
2022/04/22 08:41:24;;;;;;;3.10;0.85;;;;;;;6.64;100.00;92880.38;5001656;28;20073;-87
2022/04/22 08:43:51;;;;;;;0.50;0.50;;;;;;;6.64;100.00;92870.75;5002378;28;20372;-87
2022/04/22 08:51:45;;;;;;;1.80;0.70;;;;;;;6.85;100.00;92888.69;5004243;28;20037;-87
2022/04/22 08:54:12;;;;;;;0.73;0.60;;;;;;;6.81;100.00;92890.31;5001475;28;20347;-88
2022/04/22 08:56:39;;;;;;;0.57;0.57;;;;;;;6.75;100.00;92876.59;5001534;28;20120;-87
2022/04/22 08:59:04;;;;;;;0.75;0.60;;;;;;;7.00;100.00;92884.34;5001341;28;20025;-87
2022/04/22 09:01:29;;;;;;;0.43;0.43;;;;;;;7.10;100.00;92888.66;5001370;28;20117;-86
2022/04/22 09:03:55;;;;;;;0.63;0.60;;;;;;;7.01;100.00;92884.09;5001050;28;20081;-87
2022/04/22 09:06:28;;;;;;;0.90;0.70;;;;;;;6.91;100.00;92885.00;5001489;28;20032;-88
2022/04/22 09:08:57;;;;;;;0.70;0.60;;;;;;;7.10;100.00;92905.06;5001807;28;20026;-87
2022/04/22 09:11:23;;;;;;;0.98;0.70;;;;;;;7.05;100.00;92898.09;5001445;28;20036;-87
2022/04/22 09:13:48;;;;;;;1.38;0.85;;;;;;;6.87;100.00;92894.41;4984880;28;20351;-87
2022/04/22 09:16:20;;;;;;;0.65;0.65;;;;;;;6.90;100.00;92891.25;4984533;28;20030;-87
2022/04/22 09:18:46;;;;;;;0.93;0.80;;;;;;;6.95;100.00;92893.00;4985068;28;20089;-87
2022/04/22 09:21:20;;;;;;;1.15;0.90;;;;;;;6.99;100.00;92896.63;5018470;28;20029;-87
2022/04/22 09:23:46;;;;;;;0.70;0.70;;;;;;;7.25;100.00;92904.09;5001257;28;20030;-87
2022/04/22 09:26:22;;;;;;;0.70;0.70;;;;;;;7.03;100.00;92902.00;4985145;28;20072;-87
2022/04/22 09:29:10;;;;;;;1.15;0.93;;;;;;;7.13;100.00;92916.75;5018622;28;20486;-87
2022/04/22 09:31:46;;;;;;;3.03;1.02;;;;;;;7.11;100.00;92911.06;4985423;28;20030;-87
2022/04/22 09:34:11;;;;;;;1.02;0.80;;;;;;;7.22;100.00;92904.63;4984718;28;20371;-87
2022/04/22 09:45:01;;;;;;;1.08;0.90;;;;;;;7.22;100.00;92918.44;5017841;28;20040;-86
2022/04/22 09:47:29;;;;;;;0.95;0.90;;;;;;;7.45;100.00;92912.66;4980929;28;20041;-87
2022/04/22 09:50:01;;;;;;;0.95;0.90;;;;;;;7.46;100.00;92912.41;4965180;28;20030;-88
2022/04/22 09:52:30;;;;;;;0.80;0.80;;;;;;;7.52;100.00;92915.69;4981882;28;20124;-87
2022/04/22 09:55:02;;;;;;;1.00;0.60;;;;;;;7.63;100.00;92909.25;4981312;28;20034;-88
2022/04/22 09:57:53;;;;;;;1.15;0.70;;;;;;;7.57;100.00;92925.25;4981254;28;20034;-87
2022/04/22 10:00:20;;;;;;;0.68;0.68;;;;;;;7.54;100.00;92918.00;4981121;28;20138;-87
2022/04/22 10:02:50;;;;;;;2.08;0.80;;;;;;;7.56;100.00;92918.50;4998015;28;20034;-88
2022/04/22 10:05:21;;;;;;;0.98;0.80;;;;;;;7.64;100.00;92923.84;4964831;28;20030;-87
2022/04/22 10:07:53;;;;;;;1.25;0.90;;;;;;;7.68;100.00;92924.06;4964319;28;20030;-88
2022/04/22 10:10:24;;;;;;;1.17;0.60;;;;;;;7.80;100.00;92922.84;4963382;28;20034;-88
2022/04/22 10:12:57;;;;;;;0.70;0.70;;;;;;;7.74;100.00;92924.75;4969322;28;20037;-90
2022/04/22 10:15:25;;;;;;;;;;;;;;;7.75;100.00;92929.69;4962052;28;20325;-89
2022/04/22 10:17:51;;;;;;;2.85;0.73;;;;;;;7.56;100.00;92934.13;4945414;28;19918;-89
2022/04/22 10:20:17;;;;;;;1.02;0.80;;;;;;;7.78;100.00;92931.72;4980007;28;20458;-89
2022/04/22 10:22:42;;;;;;;1.00;0.70;;;;;;;7.31;100.00;92942.03;4980429;28;20202;-89
2022/04/22 10:25:09;;;;;;;1.27;0.80;;;;;;;7.68;100.00;92947.50;4980856;28;20470;-89
2022/04/22 10:27:36;;;;;;;1.63;1.10;;;;;;;7.71;100.00;92941.72;4996609;28;20022;-90
2022/04/22 10:30:02;;;;;;;1.05;0.88;;;;;;;7.70;100.00;92945.41;4980278;28;20348;-89
2022/04/22 10:32:31;;;;;;;0.90;0.80;;;;;;;7.70;100.00;92939.41;4996208;28;20030;-89
2022/04/22 10:35:03;;;;;;;1.50;1.10;;;;;;;7.50;100.00;92942.03;4980752;28;20457;-88
2022/04/22 10:37:41;;;;;;;;;;;;;;;;;;;;;
2022/04/22 10:40:17;;;;;;;1.60;1.30;;;;;;;7.74;100.00;92959.41;4981813;28;20305;-89
2022/04/22 10:42:43;;;;;;;0.80;0.80;;;;;;;7.57;100.00;92943.50;4980311;28;20040;-88
2022/04/22 10:47:55;;;;;;;1.10;1.00;;;;;;;7.72;100.00;92951.09;4976706;28;20467;-88
2022/04/22 10:50:29;;;;;;;1.23;1.10;;;;;;;7.49;100.00;92950.13;4978292;28;20041;-88
2022/04/22 10:53:19;;;;;;;0.90;0.80;;;;;;;7.73;100.00;92955.25;4960816;28;20070;-88
2022/04/22 10:55:46;;;;;;;1.00;0.90;;;;;;;8.00;100.00;92950.44;4977592;28;20043;-88
2022/04/22 10:58:20;;;;;;;3.50;1.17;;;;;;;7.84;100.00;92965.53;4978154;28;20041;-89
2022/04/22 11:00:52;;;;;;;1.85;1.30;;;;;;;7.97;100.00;92961.44;4976673;28;20085;-88
2022/04/22 11:03:54;;;;;;;1.90;1.60;;;;;;;8.29;100.00;92950.19;4976799;28;20391;-88
2022/04/22 11:06:20;;;;;;;2.80;1.85;;;;;;;7.95;100.00;92950.50;4960378;28;20077;-88
2022/04/22 11:08:58;;;;;;;1.92;1.70;;;;;;;8.36;100.00;92955.06;4976923;28;20377;-87
2022/04/22 11:11:24;;;;;;;1.35;1.13;;;;;;;8.11;100.00;92953.66;4976712;28;20023;-88
2022/04/22 11:13:53;;;;;;;1.33;1.23;;;;;;;8.39;100.00;92971.97;4977781;28;20082;-88
2022/04/22 11:16:32;;;;;;;2.10;1.60;;;;;;;8.72;100.00;92967.50;4960454;28;20030;-88
2022/04/22 11:19:19;;;;;;;2.17;1.60;;;;;;;8.09;100.00;92963.59;4977816;28;20057;-88
2022/04/22 11:21:52;;;;;;;1.90;1.48;;;;;;;8.54;100.00;92976.97;4977750;28;20035;-89
2022/04/22 11:24:33;;;;;;;1.20;1.10;;;;;;;8.32;100.00;92965.31;4976778;28;20026;-88
2022/04/22 11:27:14;;;;;;;2.53;1.63;;;;;;;8.70;100.00;92976.69;4976371;28;20033;-88
2022/04/22 11:29:42;;;;;;;1.35;1.25;;;;;;;8.73;100.00;92984.72;4961021;28;20500;-88
2022/04/22 11:32:14;;;;;;;2.55;1.83;;;;;;;9.28;100.00;92975.31;4976409;28;20027;-90
2022/04/22 11:34:45;;;;;;;1.73;1.58;;;;;;;9.59;100.00;92977.28;4981390;28;20031;-88
2022/04/22 11:37:18;;;;;;;1.85;1.58;;;;;;;9.33;100.00;92980.44;4980805;28;20441;-88
2022/04/22 11:39:51;;;;;;;1.88;1.40;;;;;;;8.81;100.00;92985.88;4980293;28;20027;-89
2022/04/22 11:42:20;;;;;;;4.35;2.00;;;;;;;8.50;100.00;92978.59;4980097;28;20467;-88
2022/04/22 11:45:03;;;;;;;1.77;1.50;;;;;;;8.41;100.00;92985.50;4964461;28;20065;-88
2022/04/22 11:47:29;;;;;;;2.42;1.95;;;;;;;8.29;100.00;92981.50;4963580;28;20455;-89
2022/04/22 11:49:58;;;;;;;3.65;2.30;;;;;;;8.22;100.00;92999.38;4967107;28;20169;-89
2022/04/22 11:52:27;;;;;;;2.72;2.20;;;;;;;8.03;100.00;92995.00;4948040;28;20121;-89
2022/04/22 11:54:59;;;;;;;3.15;1.70;;;;;;;7.90;100.00;92999.06;4979974;28;20117;-89
2022/04/22 11:57:25;;;;;;;2.25;1.65;;;;;;;7.92;100.00;93011.84;4990887;28;20325;-88
2022/04/22 12:05:36;;;;;;;2.13;1.83;;;;;;;8.05;100.00;93010.34;4980482;28;20077;-88
2022/04/22 12:08:13;;;;;;;2.20;1.70;;;;;;;8.44;100.00;93004.00;4979941;28;20377;-90
2022/04/22 12:10:39;;;;;;;1.60;1.30;;;;;;;8.52;100.00;93010.41;4963961;28;20031;-90
2022/04/22 12:13:08;;;;;;;1.73;1.38;;;;;;;8.77;100.00;93003.22;4963468;28;20488;-90
2022/04/22 12:15:39;;;;;;;1.90;1.38;;;;;;;8.65;100.00;93002.91;4963475;28;20101;-90
2022/04/22 12:18:05;;;;;;;1.15;1.02;;;;;;;8.82;100.00;93013.56;4979556;28;20038;-90
2022/04/22 12:20:32;;;;;;;1.33;0.95;;;;;;;8.95;100.00;93004.16;4979296;28;20030;-89
2022/04/22 12:23:00;;;;;;;1.13;1.02;;;;;;;8.76;100.00;93015.47;4979674;28;20058;-89
2022/04/22 12:25:25;;;;;;;1.63;1.25;;;;;;;8.73;100.00;93010.03;4979796;28;20085;-89
2022/04/22 12:28:13;;;;;;;1.38;1.10;;;;;;;8.75;100.00;93013.13;4979502;28;20447;-90
2022/04/22 12:30:43;;;;;;;1.25;0.75;;;;;;;9.23;100.00;93016.47;4947146;28;20466;-90
2022/04/22 12:33:17;;;;;;;36.50;17.95;;;;;;;9.39;100.00;93011.69;4979381;28;20432;-89
2022/04/22 12:35:45;;;;;;;1.45;1.10;;;;;;;9.16;100.00;93024.69;4963300;28;20125;-90
2022/04/22 12:38:20;;;;;;;2.85;1.00;;;;;;;9.05;100.00;93021.50;4964022;28;20384;-89
2022/04/22 12:40:49;;;;;;;2.97;1.95;;;;;;;9.49;100.00;93027.19;4983270;28;20432;-88
2022/04/22 12:43:28;;;;;;;22.50;14.88;;;;;;;9.58;100.00;93022.81;4997526;28;20084;-88
2022/04/22 12:52:19;;;;;;;0.60;0.60;;;;;;;10.21;100.00;93029.31;4965127;28;20062;-87
2022/04/22 12:54:55;;;;;;;;;;;;;;;;;;;;;
2022/04/22 12:57:25;;;;;;;0.93;0.60;;;;;;;10.15;100.00;93029.44;4962849;28;20026;-88
2022/04/22 12:59:54;;;;;;;1.20;1.00;;;;;;;10.72;100.00;93028.13;4978753;28;20030;-88
2022/04/22 13:02:32;;;;;;;1.27;0.80;;;;;;;10.53;100.00;93036.19;4982208;28;20034;-87
2022/04/22 13:05:05;;;;;;;1.98;1.17;;;;;;;9.93;100.00;93032.81;4966695;28;20116;-87
2022/04/22 13:07:41;;;;;;;1.40;1.10;;;;;;;10.62;100.00;93030.22;4998209;28;20030;-87
2022/04/22 13:10:11;;;;;;;6.55;5.38;;;;;;;11.39;100.00;93030.06;4965809;28;20463;-88
2022/04/22 13:12:39;;;;;;;3.00;1.90;;;;;;;10.98;100.00;93024.06;4997623;28;20215;-88
2022/04/22 13:15:20;;;;;;;;;;;;;;;;;;;;;
2022/04/22 13:17:47;;;;;;;4.82;0.90;;;;;;;11.31;100.00;93023.72;4982566;28;20444;-88
2022/04/22 13:20:15;;;;;;;0.68;0.68;;;;;;;11.55;100.00;93040.91;4965324;28;20034;-88
2022/04/22 13:22:41;;;;;;;2.38;1.00;;;;;;;11.70;100.00;93043.09;4981902;28;20034;-88
2022/04/22 13:25:10;;;;;;;1.30;0.90;;;;;;;10.87;100.00;93047.91;4965264;28;20125;-88
2022/04/22 13:27:38;;;;;;;2.83;1.02;;;;;;;11.21;100.00;93047.59;4981272;28;20101;-88
2022/04/22 13:30:05;;;;;;;5.05;3.25;;;;;;;11.72;100.00;93048.81;4965622;28;20034;-88
2022/04/22 13:32:30;;;;;;;0.70;0.60;;;;;;;10.99;100.00;93051.81;4981644;28;20121;-88
2022/04/22 13:34:58;;;;;;;0.75;0.75;;;;;;;10.28;100.00;93055.88;4981284;28;20120;-88
2022/04/22 13:37:24;;;;;;;0.95;0.68;;;;;;;10.78;100.00;93054.97;4981032;28;20034;-89
2022/04/22 13:39:49;;;;;;;15.32;9.32;;;;;;;11.36;100.00;93059.50;4965242;28;20396;-87
2022/04/22 13:42:15;;;;;;;1.15;1.05;;;;;;;11.03;100.00;93055.38;4981350;28;20085;-88
2022/04/22 13:52:54;;;;;;;1.25;1.05;;;;;;;9.78;100.00;93070.53;4997352;28;20036;-89
2022/04/22 13:55:19;;;;;;;1.17;1.08;;;;;;;9.67;100.00;93072.59;4964473;28;20026;-88
2022/04/22 13:57:45;;;;;;;1.00;0.90;;;;;;;9.64;100.00;93067.94;4980780;28;20030;-89
2022/04/22 14:00:13;;;;;;;0.88;0.80;;;;;;;9.26;100.00;93071.56;4981299;28;20030;-88
2022/04/22 14:02:39;;;;;;;1.92;1.17;;;;;;;9.94;100.00;93080.66;4980949;28;20030;-89
2022/04/22 14:05:05;;;;;;;1.73;1.17;;;;;;;9.70;100.00;93072.00;4980903;28;20034;-88
2022/04/22 14:07:30;;;;;;;9.70;6.55;;;;;;;9.45;100.00;93087.09;4996744;28;20034;-89
2022/04/22 14:09:57;;;;;;;4.68;2.60;;;;;;;9.41;100.00;93090.63;4965003;28;20423;-90
2022/04/22 14:12:23;;;;;;;15.85;9.20;;;;;;;9.33;100.00;93082.38;4980451;28;20052;-88
2022/04/22 14:14:52;;;;;;;2.13;1.17;;;;;;;9.40;100.00;93087.22;4980665;28;20129;-89
2022/04/22 14:17:20;;;;;;;1.15;1.05;;;;;;;9.33;100.00;93089.47;4980574;28;20030;-88
2022/04/22 14:19:46;;;;;;;1.73;1.35;;;;;;;9.58;100.00;93090.81;4980655;28;20053;-88
2022/04/22 14:22:12;;;;;;;1.13;1.02;;;;;;;9.66;100.00;93091.94;4997016;28;20129;-89
2022/04/22 14:24:40;;;;;;;1.58;1.00;;;;;;;9.70;100.00;93090.28;4980691;28;20125;-88
2022/04/22 14:27:08;;;;;;;2.42;1.73;;;;;;;9.47;100.00;93097.28;4964641;28;20019;-88